createdAt,value
2022-07-27T00:00:59.798Z,18.54
2022-07-27T00:03:26.487Z,18.72
2022-07-27T00:05:53.129Z,18.62
2022-07-27T00:08:19.792Z,18.41
2022-07-27T00:10:46.608Z,18.40
2022-07-27T00:13:13.232Z,18.53
2022-07-27T00:15:39.979Z,18.49
2022-07-27T00:18:06.675Z,18.50
2022-07-27T00:20:33.331Z,18.52
2022-07-27T00:23:00.356Z,18.52
2022-07-27T00:25:27.656Z,18.59
2022-07-27T00:27:55.440Z,18.43
2022-07-27T00:30:22.175Z,18.45
2022-07-27T00:32:48.820Z,18.32
2022-07-27T00:35:15.729Z,18.40
2022-07-27T00:37:42.424Z,18.44
2022-07-27T00:40:10.473Z,18.37
2022-07-27T00:42:37.209Z,18.42
2022-07-27T00:45:05.363Z,18.35
2022-07-27T00:47:32.144Z,18.74
2022-07-27T00:49:59.950Z,18.55
2022-07-27T00:52:29.020Z,18.38
2022-07-27T00:54:55.992Z,18.34
2022-07-27T00:57:23.136Z,18.41
2022-07-27T00:59:49.764Z,18.28
2022-07-27T01:02:19.358Z,18.47
2022-07-27T01:04:47.185Z,18.55
2022-07-27T01:07:15.060Z,18.28
2022-07-27T01:09:42.651Z,18.15
2022-07-27T01:12:15.366Z,18.30
2022-07-27T01:14:41.978Z,18.64
2022-07-27T01:17:08.624Z,18.18
2022-07-27T01:19:35.541Z,18.10
2022-07-27T01:22:03.456Z,18.05
2022-07-27T01:24:30.137Z,17.95
2022-07-27T01:26:57.145Z,17.96
2022-07-27T01:29:23.806Z,18.11
2022-07-27T01:31:50.498Z,18.18
2022-07-27T01:34:17.157Z,17.96
2022-07-27T01:36:43.867Z,17.84
2022-07-27T01:39:10.830Z,17.87
2022-07-27T01:41:37.632Z,17.79
2022-07-27T01:44:04.605Z,18.05
2022-07-27T01:46:31.268Z,17.98
2022-07-27T01:48:58.074Z,18.13
2022-07-27T01:51:24.910Z,18.14
2022-07-27T01:53:51.528Z,17.98
2022-07-27T01:56:18.204Z,18.09
2022-07-27T01:58:44.840Z,17.91
2022-07-27T02:01:11.662Z,18.21
2022-07-27T02:03:38.874Z,17.94
2022-07-27T02:06:06.274Z,18.10
2022-07-27T02:08:33.125Z,17.83
2022-07-27T02:11:00.031Z,18.05
2022-07-27T02:13:26.805Z,17.78
2022-07-27T02:15:54.669Z,17.92
2022-07-27T02:18:32.868Z,17.99
2022-07-27T02:21:02.468Z,18.14
2022-07-27T02:23:29.091Z,18.22
2022-07-27T02:25:55.709Z,18.34
2022-07-27T02:28:22.349Z,18.30
2022-07-27T02:30:48.978Z,18.39
2022-07-27T02:33:15.725Z,18.54
2022-07-27T02:35:43.288Z,18.57
2022-07-27T02:38:09.991Z,18.55
2022-07-27T02:40:37.199Z,18.53
2022-07-27T02:43:03.954Z,18.34
2022-07-27T02:45:30.625Z,18.23
2022-07-27T02:47:57.326Z,18.11
2022-07-27T02:50:24.148Z,17.86
2022-07-27T02:52:50.779Z,17.84
2022-07-27T02:55:17.499Z,17.96
2022-07-27T02:57:44.142Z,17.86
2022-07-27T03:00:13.666Z,17.66
2022-07-27T03:02:40.780Z,17.79
2022-07-27T03:05:09.098Z,17.69
2022-07-27T03:07:35.866Z,17.75
2022-07-27T03:10:02.771Z,17.74
2022-07-27T03:12:29.511Z,17.84
2022-07-27T03:14:56.997Z,17.87
2022-07-27T03:17:23.610Z,17.94
2022-07-27T03:19:50.294Z,17.90
2022-07-27T03:22:17.016Z,17.85
2022-07-27T03:24:43.645Z,17.84
2022-07-27T03:27:10.305Z,17.78
2022-07-27T03:29:36.957Z,17.78
2022-07-27T03:32:03.713Z,17.83
2022-07-27T03:34:30.365Z,17.96
2022-07-27T03:36:57.075Z,17.85
2022-07-27T03:39:23.784Z,17.72
2022-07-27T03:41:50.494Z,17.70
2022-07-27T03:44:17.135Z,17.74
2022-07-27T03:46:43.777Z,17.79
2022-07-27T03:49:13.957Z,17.82
2022-07-27T03:51:42.240Z,17.80
2022-07-27T03:54:08.902Z,17.90
2022-07-27T03:56:35.551Z,17.84
2022-07-27T03:59:02.216Z,17.71
2022-07-27T04:01:29.002Z,17.68
2022-07-27T04:03:55.713Z,17.61
2022-07-27T04:06:22.368Z,17.67
2022-07-27T04:08:49.021Z,17.55
2022-07-27T04:11:17.710Z,17.56
2022-07-27T04:13:49.065Z,17.56
2022-07-27T04:16:16.233Z,17.37
2022-07-27T04:18:43.169Z,17.07
2022-07-27T04:21:09.896Z,17.07
2022-07-27T04:23:38.428Z,17.07
2022-07-27T04:26:05.309Z,17.12
2022-07-27T04:28:31.987Z,17.11
2022-07-27T04:30:58.640Z,17.15
2022-07-27T04:33:25.370Z,17.24
2022-07-27T04:35:51.982Z,17.25
2022-07-27T04:38:18.621Z,17.24
2022-07-27T04:40:45.359Z,17.23
2022-07-27T04:43:11.970Z,17.17
2022-07-27T04:45:39.103Z,17.12
2022-07-27T04:48:07.235Z,17.24
2022-07-27T04:50:44.715Z,17.38
2022-07-27T04:53:12.809Z,17.41
2022-07-27T04:55:46.312Z,17.27
2022-07-27T04:58:13.942Z,17.24
2022-07-27T05:00:40.682Z,17.39
2022-07-27T05:03:07.339Z,17.62
2022-07-27T05:05:34.135Z,17.49
2022-07-27T05:08:00.851Z,17.53
2022-07-27T05:10:27.644Z,17.54
2022-07-27T05:12:54.283Z,17.73
2022-07-27T05:15:21.740Z,17.75
2022-07-27T05:17:48.564Z,17.91
2022-07-27T05:20:15.858Z,17.89
2022-07-27T05:22:42.493Z,17.98
2022-07-27T05:25:09.836Z,17.99
2022-07-27T05:27:36.543Z,17.99
2022-07-27T05:30:06.944Z,18.10
2022-07-27T05:32:33.726Z,18.18
2022-07-27T05:35:00.347Z,18.20
2022-07-27T05:37:27.027Z,18.19
2022-07-27T05:39:53.719Z,18.43
2022-07-27T05:42:20.357Z,19.11
2022-07-27T05:44:46.979Z,18.88
2022-07-27T05:47:13.645Z,18.80
2022-07-27T05:49:40.486Z,18.99
2022-07-27T05:52:07.100Z,19.16
2022-07-27T05:54:33.772Z,19.08
2022-07-27T05:57:00.424Z,19.30
2022-07-27T05:59:27.064Z,19.49
2022-07-27T06:01:53.780Z,19.26
2022-07-27T06:04:20.453Z,19.65
2022-07-27T06:06:47.069Z,19.49
2022-07-27T06:09:14.258Z,19.65
2022-07-27T06:11:41.659Z,19.73
2022-07-27T06:14:08.298Z,19.69
2022-07-27T06:16:35.066Z,19.73
2022-07-27T06:19:01.771Z,19.79
2022-07-27T06:21:28.501Z,19.92
2022-07-27T06:23:55.566Z,19.96
2022-07-27T06:26:22.201Z,20.06
2022-07-27T06:28:48.939Z,20.06
2022-07-27T06:31:15.653Z,20.36
2022-07-27T06:33:44.247Z,20.20
2022-07-27T06:36:14.931Z,20.21
2022-07-27T06:38:41.758Z,20.34
2022-07-27T06:41:08.415Z,20.35
2022-07-27T06:43:35.025Z,20.64
2022-07-27T06:46:01.659Z,20.61
2022-07-27T06:48:28.398Z,20.66
2022-07-27T06:50:55.357Z,20.89
2022-07-27T06:53:22.119Z,20.73
2022-07-27T06:55:49.349Z,20.86
2022-07-27T06:58:16.775Z,21.02
2022-07-27T07:00:44.119Z,21.34
2022-07-27T07:03:10.972Z,21.42
2022-07-27T07:05:44.379Z,21.41
2022-07-27T07:08:11.463Z,21.48
2022-07-27T07:10:40.017Z,21.86
2022-07-27T07:13:08.086Z,21.71
2022-07-27T07:15:36.472Z,21.64
2022-07-27T07:18:03.578Z,22.17
2022-07-27T07:20:30.802Z,22.09
2022-07-27T07:22:58.257Z,22.42
2022-07-27T07:25:25.170Z,22.57
2022-07-27T07:27:52.045Z,22.41
2022-07-27T07:30:19.510Z,22.37
2022-07-27T07:32:46.279Z,22.65
2022-07-27T07:35:13.278Z,22.41
2022-07-27T07:37:40.218Z,22.46
2022-07-27T07:40:40.230Z,22.53
2022-07-27T07:42:57.772Z,22.92
2022-07-27T07:45:25.060Z,23.03
2022-07-27T07:47:52.579Z,23.10
2022-07-27T07:50:19.550Z,23.26
2022-07-27T07:52:49.138Z,22.97
2022-07-27T07:55:16.655Z,23.20
2022-07-27T07:57:43.252Z,23.41
2022-07-27T08:00:10.463Z,23.94
2022-07-27T08:02:46.822Z,24.04
2022-07-27T08:05:14.594Z,24.43
2022-07-27T08:07:42.054Z,24.31
2022-07-27T08:10:10.426Z,24.46
2022-07-27T08:12:41.255Z,24.45
2022-07-27T08:15:09.438Z,24.36
2022-07-27T08:17:36.277Z,24.23
2022-07-27T08:20:03.443Z,24.40
2022-07-27T08:22:30.148Z,24.71
2022-07-27T08:24:56.776Z,25.04
2022-07-27T08:27:23.499Z,24.92
2022-07-27T08:29:51.912Z,24.80
2022-07-27T08:32:19.868Z,24.84
2022-07-27T08:34:46.583Z,25.10
2022-07-27T08:37:15.653Z,24.75
2022-07-27T08:42:30.231Z,25.39
2022-07-27T08:44:58.435Z,25.69
2022-07-27T08:47:26.374Z,25.66
2022-07-27T08:49:53.415Z,25.69
2022-07-27T08:52:21.566Z,25.20
2022-07-27T08:54:49.282Z,25.68
2022-07-27T08:57:15.922Z,26.04
2022-07-27T08:59:42.561Z,25.78
2022-07-27T09:02:14.340Z,25.84
2022-07-27T09:04:41.272Z,25.87
2022-07-27T09:07:08.164Z,26.15
2022-07-27T09:09:45.447Z,25.81
2022-07-27T09:12:12.229Z,25.53
2022-07-27T09:14:41.536Z,25.70
2022-07-27T09:20:18.543Z,26.08
2022-07-27T09:22:48.715Z,26.31
2022-07-27T09:25:18.435Z,26.09
2022-07-27T09:27:45.607Z,26.13
2022-07-27T09:30:17.176Z,26.15
2022-07-27T09:32:58.963Z,26.48
2022-07-27T09:35:31.312Z,26.74
2022-07-27T09:38:17.259Z,27.02
2022-07-27T09:40:44.121Z,26.77
2022-07-27T09:46:10.992Z,26.31
2022-07-27T09:48:37.910Z,26.77
2022-07-27T09:51:37.434Z,26.90
2022-07-27T09:53:55.500Z,26.59
2022-07-27T09:56:30.443Z,26.67
2022-07-27T09:59:00.199Z,27.04
2022-07-27T10:01:33.700Z,27.14
2022-07-27T10:04:05.579Z,27.27
2022-07-27T10:06:47.746Z,27.21
2022-07-27T10:09:19.485Z,27.51
2022-07-27T10:11:47.861Z,27.72
2022-07-27T10:14:15.490Z,27.60
2022-07-27T10:16:43.885Z,27.66
2022-07-27T10:19:33.848Z,27.09
2022-07-27T10:22:00.699Z,27.49
2022-07-27T10:24:32.803Z,27.54
2022-07-27T10:27:00.220Z,27.06
2022-07-27T10:29:26.886Z,27.42
2022-07-27T10:31:53.486Z,27.13
2022-07-27T10:34:34.198Z,27.69
2022-07-27T10:37:12.799Z,27.64
2022-07-27T10:39:41.718Z,28.02
2022-07-27T10:42:24.118Z,27.91
2022-07-27T10:45:03.629Z,28.15
2022-07-27T10:47:36.316Z,27.98
2022-07-27T10:50:18.283Z,27.91
2022-07-27T10:52:48.656Z,28.19
2022-07-27T10:55:30.490Z,27.98
2022-07-27T10:57:58.889Z,28.02
2022-07-27T11:00:55.240Z,28.09
2022-07-27T11:03:28.758Z,28.44
2022-07-27T11:06:04.728Z,28.21
2022-07-27T11:08:47.418Z,28.19
2022-07-27T11:11:23.531Z,28.56
2022-07-27T11:13:53.414Z,28.70
2022-07-27T11:16:24.539Z,28.74
2022-07-27T11:18:57.048Z,28.98
2022-07-27T11:21:28.060Z,28.76
2022-07-27T11:23:59.675Z,28.97
2022-07-27T11:26:29.078Z,28.95
2022-07-27T11:28:55.839Z,28.51
2022-07-27T11:31:38.655Z,28.82
2022-07-27T11:34:10.600Z,29.00
2022-07-27T11:36:42.503Z,28.99
2022-07-27T11:39:15.160Z,29.53
2022-07-27T11:44:30.477Z,28.86
2022-07-27T11:47:01.754Z,29.13
2022-07-27T11:49:31.616Z,29.53
2022-07-27T11:52:04.622Z,29.16
2022-07-27T11:54:35.274Z,28.94
2022-07-27T11:57:08.028Z,29.03
2022-07-27T11:59:36.909Z,29.01
2022-07-27T12:02:18.335Z,29.28
2022-07-27T12:04:48.300Z,29.49
2022-07-27T12:07:21.368Z,29.88
2022-07-27T12:09:56.801Z,29.79
2022-07-27T12:12:25.502Z,29.67
2022-07-27T12:14:54.385Z,30.13
2022-07-27T12:17:25.733Z,29.64
2022-07-27T12:20:13.041Z,28.79
2022-07-27T12:22:52.128Z,29.49
2022-07-27T12:25:18.698Z,29.86
2022-07-27T12:28:06.127Z,29.78
2022-07-27T12:30:32.773Z,29.71
2022-07-27T12:33:00.451Z,30.17
2022-07-27T12:35:35.916Z,30.46
2022-07-27T12:38:06.084Z,30.48
2022-07-27T12:40:34.291Z,30.07
2022-07-27T12:43:06.016Z,29.90
2022-07-27T12:45:35.217Z,30.02
2022-07-27T12:48:23.122Z,30.35
2022-07-27T12:51:06.718Z,30.92
2022-07-27T12:53:36.069Z,31.16
2022-07-27T12:56:07.387Z,30.65
2022-07-27T12:58:34.841Z,30.54
2022-07-27T13:01:01.683Z,30.38
2022-07-27T13:03:28.322Z,30.42
2022-07-27T13:05:55.247Z,30.96
2022-07-27T13:08:22.189Z,30.93
2022-07-27T13:10:48.921Z,31.02
2022-07-27T13:13:15.633Z,30.76
2022-07-27T13:15:42.258Z,30.37
2022-07-27T13:18:08.916Z,30.22
2022-07-27T13:20:36.183Z,30.16
2022-07-27T13:23:02.810Z,30.37
2022-07-27T13:25:30.189Z,29.87
2022-07-27T13:27:56.806Z,29.81
2022-07-27T13:30:23.449Z,29.58
2022-07-27T13:32:50.199Z,29.48
2022-07-27T13:35:17.270Z,29.33
2022-07-27T13:37:45.025Z,29.51
2022-07-27T13:40:13.003Z,30.26
2022-07-27T13:42:39.648Z,29.43
2022-07-27T13:45:10.966Z,29.46
2022-07-27T13:47:39.658Z,29.24
2022-07-27T13:50:09.829Z,29.05
2022-07-27T13:52:38.682Z,29.15
2022-07-27T13:55:08.095Z,29.42
2022-07-27T13:57:34.856Z,30.12
2022-07-27T14:00:01.656Z,30.26
2022-07-27T14:02:28.401Z,30.14
2022-07-27T14:04:55.774Z,30.07
2022-07-27T14:07:28.030Z,29.98
2022-07-27T14:09:55.299Z,30.37
2022-07-27T14:12:21.988Z,30.62
2022-07-27T14:14:48.617Z,30.32
2022-07-27T14:17:15.293Z,30.37
2022-07-27T14:19:42.036Z,30.20
2022-07-27T14:22:08.710Z,30.22
2022-07-27T14:24:38.096Z,30.81
2022-07-27T14:27:07.208Z,30.68
2022-07-27T14:29:34.244Z,30.09
2022-07-27T14:32:01.568Z,30.13
2022-07-27T14:34:28.286Z,30.67
2022-07-27T14:36:54.932Z,30.63
2022-07-27T14:39:21.575Z,30.62
2022-07-27T14:41:48.620Z,31.10
2022-07-27T14:44:15.284Z,30.44
2022-07-27T14:46:46.206Z,30.34
2022-07-27T14:49:13.148Z,30.58
2022-07-27T14:51:40.021Z,31.27
2022-07-27T14:54:06.660Z,31.21
2022-07-27T14:56:33.379Z,31.34
2022-07-27T14:59:00.099Z,31.68
2022-07-27T15:01:26.875Z,31.85
2022-07-27T15:03:53.558Z,31.20
2022-07-27T15:06:20.239Z,31.01
2022-07-27T15:08:46.852Z,31.13
2022-07-27T15:11:13.744Z,31.05
2022-07-27T15:13:40.834Z,31.20
2022-07-27T15:16:07.578Z,30.88
2022-07-27T15:18:38.482Z,31.17
2022-07-27T15:21:12.859Z,31.74
2022-07-27T15:23:41.999Z,31.64
2022-07-27T15:26:08.735Z,30.69
2022-07-27T15:28:35.432Z,30.83
2022-07-27T15:31:02.114Z,30.36
2022-07-27T15:33:28.773Z,30.68
2022-07-27T15:35:55.723Z,30.79
2022-07-27T15:38:22.778Z,30.76
2022-07-27T15:40:49.517Z,30.39
2022-07-27T15:43:17.957Z,30.28
2022-07-27T15:45:47.521Z,30.38
2022-07-27T15:48:15.104Z,30.27
2022-07-27T15:50:44.593Z,30.22
2022-07-27T15:53:12.106Z,30.09
2022-07-27T15:55:38.922Z,29.92
2022-07-27T15:58:06.698Z,30.28
2022-07-27T16:00:39.592Z,30.69
2022-07-27T16:03:09.342Z,30.58
2022-07-27T16:05:36.377Z,30.70
2022-07-27T16:08:03.810Z,31.47
2022-07-27T16:10:30.426Z,32.23
2022-07-27T16:12:57.999Z,31.92
2022-07-27T16:15:24.631Z,31.54
2022-07-27T16:17:51.280Z,32.01
2022-07-27T16:20:17.971Z,31.66
2022-07-27T16:22:44.573Z,31.43
2022-07-27T16:25:11.270Z,30.77
2022-07-27T16:27:37.915Z,30.83
2022-07-27T16:30:05.005Z,30.17
2022-07-27T16:32:31.678Z,29.88
2022-07-27T16:34:58.298Z,30.29
2022-07-27T16:37:25.145Z,30.04
2022-07-27T16:39:51.777Z,29.90
2022-07-27T16:42:18.395Z,30.08
2022-07-27T16:44:45.076Z,30.10
2022-07-27T16:47:11.700Z,29.56
2022-07-27T16:49:38.384Z,29.37
2022-07-27T16:52:06.126Z,29.41
2022-07-27T16:54:37.171Z,29.36
2022-07-27T16:57:07.012Z,29.05
2022-07-27T16:59:33.622Z,29.06
2022-07-27T17:02:00.336Z,29.36
2022-07-27T17:04:27.135Z,29.41
2022-07-27T17:06:53.799Z,29.25
2022-07-27T17:09:20.547Z,29.16
2022-07-27T17:11:47.322Z,29.47
2022-07-27T17:14:14.056Z,29.30
2022-07-27T17:16:41.355Z,29.05
2022-07-27T17:19:08.006Z,28.47
2022-07-27T17:21:34.641Z,28.44
2022-07-27T17:24:01.262Z,28.05
2022-07-27T17:26:27.876Z,27.95
2022-07-27T17:28:54.533Z,28.28
2022-07-27T17:31:21.788Z,28.12
2022-07-27T17:33:49.350Z,27.94
2022-07-27T17:36:16.122Z,28.09
2022-07-27T17:38:44.695Z,27.92
2022-07-27T17:41:12.676Z,27.77
2022-07-27T17:43:39.744Z,27.61
2022-07-27T17:46:08.130Z,27.55
2022-07-27T17:48:35.612Z,27.18
2022-07-27T17:51:03.779Z,26.93
2022-07-27T17:53:30.446Z,26.72
2022-07-27T17:55:57.091Z,26.62
2022-07-27T17:58:28.037Z,26.74
2022-07-27T18:00:56.787Z,26.78
2022-07-27T18:03:23.639Z,26.65
2022-07-27T18:05:50.280Z,26.28
2022-07-27T18:08:17.143Z,26.11
2022-07-27T18:10:43.769Z,26.25
2022-07-27T18:13:10.379Z,26.41
2022-07-27T18:15:37.185Z,26.01
2022-07-27T18:18:03.901Z,26.01
2022-07-27T18:20:30.536Z,26.19
2022-07-27T18:22:57.255Z,26.28
2022-07-27T18:25:25.736Z,26.42
2022-07-27T18:27:52.391Z,26.41
2022-07-27T18:30:19.049Z,26.29
2022-07-27T18:32:45.734Z,26.40
2022-07-27T18:35:13.230Z,26.45
2022-07-27T18:37:39.927Z,26.27
2022-07-27T18:40:07.517Z,26.52
2022-07-27T18:42:34.148Z,26.42
2022-07-27T18:45:00.759Z,26.27
2022-07-27T18:47:27.576Z,26.04
2022-07-27T18:49:54.216Z,26.23
2022-07-27T18:52:20.896Z,25.95
2022-07-27T18:54:47.629Z,25.91
2022-07-27T18:57:14.256Z,25.71
2022-07-27T18:59:41.479Z,25.63
2022-07-27T19:02:08.410Z,25.62
2022-07-27T19:04:35.407Z,25.87
2022-07-27T19:07:03.694Z,25.18
2022-07-27T19:09:33.706Z,25.13
2022-07-27T19:12:02.609Z,25.16
2022-07-27T19:14:31.312Z,25.19
2022-07-27T19:16:57.975Z,24.82
2022-07-27T19:19:25.064Z,24.90
2022-07-27T19:21:51.907Z,25.26
2022-07-27T19:24:18.651Z,24.96
2022-07-27T19:26:45.310Z,24.81
2022-07-27T19:29:12.310Z,24.75
2022-07-27T19:31:39.263Z,24.63
2022-07-27T19:34:06.071Z,24.67
2022-07-27T19:36:32.738Z,24.84
2022-07-27T19:39:01.986Z,24.77
2022-07-27T19:41:32.320Z,24.85
2022-07-27T19:43:58.958Z,24.68
2022-07-27T19:46:25.799Z,24.84
2022-07-27T19:48:52.569Z,24.89
2022-07-27T19:51:19.262Z,24.76
2022-07-27T19:53:45.948Z,24.54
2022-07-27T19:56:12.696Z,24.33
2022-07-27T19:58:39.449Z,24.24
2022-07-27T20:01:09.428Z,23.89
2022-07-27T20:03:52.147Z,24.01
2022-07-27T20:06:20.992Z,24.08
2022-07-27T20:08:47.610Z,23.95
2022-07-27T20:11:14.237Z,24.02
2022-07-27T20:13:40.969Z,23.93
2022-07-27T20:16:07.658Z,23.98
2022-07-27T20:18:34.294Z,23.87
2022-07-27T20:21:01.535Z,23.83
2022-07-27T20:23:28.141Z,23.90
2022-07-27T20:25:54.883Z,24.03
2022-07-27T20:28:21.523Z,23.86
2022-07-27T20:30:48.241Z,23.66
2022-07-27T20:33:15.067Z,23.54
2022-07-27T20:35:41.769Z,23.86
2022-07-27T20:38:08.491Z,23.72
2022-07-27T20:40:35.229Z,24.19
2022-07-27T20:43:01.892Z,23.81
2022-07-27T20:45:28.705Z,23.90
2022-07-27T20:47:55.381Z,23.79
2022-07-27T20:50:22.026Z,23.66
2022-07-27T20:52:48.652Z,23.36
2022-07-27T20:55:15.303Z,23.77
2022-07-27T20:57:42.028Z,23.50
2022-07-27T21:00:10.115Z,23.22
2022-07-27T21:02:36.886Z,23.10
2022-07-27T21:05:04.724Z,23.27
2022-07-27T21:07:31.457Z,23.63
2022-07-27T21:09:58.218Z,23.51
2022-07-27T21:12:24.847Z,23.05
2022-07-27T21:14:51.478Z,23.16
2022-07-27T21:17:18.180Z,23.20
2022-07-27T21:19:44.815Z,23.18
2022-07-27T21:22:11.576Z,23.15
2022-07-27T21:24:38.237Z,23.26
2022-07-27T21:27:05.108Z,23.41
2022-07-27T21:29:32.159Z,23.44
2022-07-27T21:31:59.090Z,23.15
2022-07-27T21:34:25.783Z,23.31
2022-07-27T21:36:52.681Z,23.05
2022-07-27T21:39:20.124Z,23.13
2022-07-27T21:41:46.878Z,22.89
2022-07-27T21:44:13.833Z,23.01
2022-07-27T21:46:40.897Z,23.04
2022-07-27T21:49:07.971Z,23.21
2022-07-27T21:51:34.874Z,23.15
2022-07-27T21:54:01.679Z,23.05
2022-07-27T21:56:28.397Z,22.93
2022-07-27T21:58:55.054Z,23.08
2022-07-27T22:01:21.872Z,22.83
2022-07-27T22:03:48.744Z,22.81
2022-07-27T22:06:15.589Z,22.92
2022-07-27T22:08:42.357Z,22.72
2022-07-27T22:11:09.430Z,22.99
2022-07-27T22:13:36.135Z,23.01
2022-07-27T22:16:03.391Z,22.91
2022-07-27T22:18:30.377Z,22.68
2022-07-27T22:20:57.744Z,23.21
2022-07-27T22:23:24.960Z,22.93
2022-07-27T22:25:51.754Z,23.02
2022-07-27T22:28:18.499Z,22.90
2022-07-27T22:31:20.462Z,23.02
2022-07-27T22:33:31.806Z,22.75
2022-07-27T22:35:58.434Z,22.90
2022-07-27T22:38:25.065Z,22.57
2022-07-27T22:40:55.814Z,22.57
2022-07-27T22:43:23.019Z,22.39
2022-07-27T22:45:50.064Z,22.38
2022-07-27T22:48:16.842Z,22.46
2022-07-27T22:50:46.885Z,22.35
2022-07-27T22:53:16.708Z,22.13
2022-07-27T22:55:43.352Z,22.55
2022-07-27T22:58:10.022Z,22.52
2022-07-27T23:00:36.876Z,22.40
2022-07-27T23:03:03.793Z,22.04
2022-07-27T23:05:30.522Z,22.07
2022-07-27T23:07:57.183Z,22.21
2022-07-27T23:10:28.732Z,22.31
2022-07-27T23:12:57.700Z,22.22
2022-07-27T23:15:25.485Z,22.16
2022-07-27T23:17:52.221Z,22.28
2022-07-27T23:20:18.943Z,22.26
2022-07-27T23:22:49.567Z,22.20
2022-07-27T23:25:16.259Z,22.07
2022-07-27T23:27:43.263Z,21.98
2022-07-27T23:30:10.481Z,22.11
2022-07-27T23:32:37.122Z,22.14
2022-07-27T23:35:04.275Z,22.05
2022-07-27T23:37:30.908Z,22.02
2022-07-27T23:39:57.559Z,22.06
2022-07-27T23:42:24.215Z,22.06
2022-07-27T23:44:50.904Z,21.91
2022-07-27T23:47:18.843Z,22.07
2022-07-27T23:49:45.461Z,22.06
2022-07-27T23:52:12.084Z,22.00
2022-07-27T23:54:38.823Z,21.82
2022-07-27T23:57:05.510Z,21.94
2022-07-27T23:59:32.139Z,21.89
